Time,TemperatureF,DewpointF,PressureIn,WindDirection,WindDirectionDegrees,WindSpeedMPH,WindSpeedGustMPH,Humidity,HourlyPrecipIn,Conditions,Clouds,dailyrainin,SoftwareType,DateUTC
2013-07-27 00:40:00,79.2,79.0,29.91,WSW,253,3.0,-999.0,100,-99.99,,,0.00,weatherlink.com 1.10,2013-07-27 04:40:00,
2013-07-27 00:55:00,79.2,79.0,29.89,WSW,252,0.0,-999.0,100,-99.99,,,0.00,weatherlink.com 1.10,2013-07-27 04:55:00,
2013-07-27 01:10:00,79.2,79.0,29.89,WSW,252,0.0,-999.0,100,-99.99,,,0.00,weatherlink.com 1.10,2013-07-27 05:10:00,
2013-07-27 01:25:00,79.0,79.0,29.89,WNW,285,0.0,-999.0,100,-99.99,,,0.00,weatherlink.com 1.10,2013-07-27 05:25:00,
2013-07-27 01:40:00,79.0,79.0,29.88,West,265,0.0,-999.0,100,-99.99,,,0.00,weatherlink.com 1.10,2013-07-27 05:40:00,
2013-07-27 01:55:00,78.8,79.0,29.88,West,267,0.0,-999.0,100,-99.99,,,0.00,weatherlink.com 1.10,2013-07-27 05:55:00,
2013-07-27 02:10:00,78.5,79.0,29.88,West,267,0.0,-999.0,100,-99.99,,,0.00,weatherlink.com 1.10,2013-07-27 06:10:00,
2013-07-27 02:25:00,78.6,79.0,29.88,WNW,291,2.0,-999.0,100,-99.99,,,0.00,weatherlink.com 1.10,2013-07-27 06:25:00,
2013-07-27 02:54:00,78.6,79.0,29.87,WNW,299,0.0,-999.0,100,-99.99,,,0.00,weatherlink.com 1.10,2013-07-27 06:54:00,
2013-07-27 03:24:00,77.9,78.0,29.86,West,277,4.0,-999.0,100,-99.99,,,0.00,weatherlink.com 1.10,2013-07-27 07:24:00,
2013-07-27 03:39:00,77.7,78.0,29.86,WNW,288,0.0,-999.0,100,-99.99,,,0.00,weatherlink.com 1.10,2013-07-27 07:39:00,
2013-07-27 04:10:00,77.6,78.0,29.86,WNW,288,0.0,-999.0,100,-99.99,,,0.00,weatherlink.com 1.10,2013-07-27 08:10:00,
2013-07-27 04:39:00,77.4,77.0,29.85,WNW,287,0.0,-999.0,100,-99.99,,,0.00,weatherlink.com 1.10,2013-07-27 08:39:00,
2013-07-27 04:54:00,77.6,78.0,29.85,WNW,287,0.0,-999.0,100,-99.99,,,0.00,weatherlink.com 1.10,2013-07-27 08:54:00,
2013-07-27 06:09:00,77.4,77.0,29.86,WNW,287,0.0,-999.0,100,-99.99,,,0.00,weatherlink.com 1.10,2013-07-27 10:09:00,
2013-07-27 06:40:00,77.0,77.0,29.87,WNW,287,0.0,-999.0,100,-99.99,,,0.00,weatherlink.com 1.10,2013-07-27 10:40:00,
2013-07-27 07:25:00,77.6,78.0,29.88,WNW,287,0.0,-999.0,100,-99.99,,,0.00,weatherlink.com 1.10,2013-07-27 11:25:00,
2013-07-27 07:40:00,77.7,78.0,29.89,WNW,287,0.0,-999.0,100,-99.99,,,0.00,weatherlink.com 1.10,2013-07-27 11:40:00,
2013-07-27 08:10:00,78.6,79.0,29.89,WNW,287,0.0,-999.0,100,-99.99,,,0.00,weatherlink.com 1.10,2013-07-27 12:10:00,
2013-07-27 08:25:00,79.4,79.0,29.89,WNW,287,0.0,-999.0,100,-99.99,,,0.00,weatherlink.com 1.10,2013-07-27 12:25:00,
2013-07-27 09:40:00,82.2,82.0,29.89,West,265,0.0,-999.0,100,-99.99,,,0.00,weatherlink.com 1.10,2013-07-27 13:40:00,
2013-07-27 10:25:00,84.5,85.0,29.89,WNW,286,0.0,-999.0,100,-99.99,,,0.00,weatherlink.com 1.10,2013-07-27 14:25:00,
2013-07-27 10:55:00,87.0,87.0,29.89,East,89,0.0,-999.0,100,-99.99,,,0.00,weatherlink.com 1.10,2013-07-27 14:55:00,
2013-07-27 11:25:00,88.8,89.0,29.90,East,84,0.0,-999.0,100,-99.99,,,0.00,weatherlink.com 1.10,2013-07-27 15:25:00,
2013-07-27 11:40:00,89.3,89.0,29.90,East,94,3.0,-999.0,100,-99.99,,,0.00,weatherlink.com 1.10,2013-07-27 15:40:00,
2013-07-27 11:55:00,89.3,89.0,29.89,ENE,77,0.0,-999.0,100,-99.99,,,0.00,weatherlink.com 1.10,2013-07-27 15:55:00,
2013-07-27 12:10:00,88.6,89.0,29.89,East,86,4.0,-999.0,100,-99.99,,,0.00,weatherlink.com 1.10,2013-07-27 16:10:00,
2013-07-27 12:25:00,89.3,89.0,29.89,ESE,113,1.0,-999.0,100,-99.99,,,0.00,weatherlink.com 1.10,2013-07-27 16:25:00,
2013-07-27 12:40:00,87.8,88.0,29.89,East,82,4.0,-999.0,100,-99.99,,,0.00,weatherlink.com 1.10,2013-07-27 16:40:00,
2013-07-27 12:55:00,88.0,88.0,29.89,East,94,0.0,-999.0,100,-99.99,,,0.00,weatherlink.com 1.10,2013-07-27 16:55:00,
2013-07-27 13:10:00,88.2,88.0,29.89,ENE,70,0.0,-999.0,100,-99.99,,,0.00,weatherlink.com 1.10,2013-07-27 17:10:00,
2013-07-27 13:25:00,87.2,87.0,29.88,ESE,103,0.0,-999.0,100,-99.99,,,0.00,weatherlink.com 1.10,2013-07-27 17:25:00,
2013-07-27 13:40:00,88.2,88.0,29.88,East,84,9.0,-999.0,100,-99.99,,,0.00,weatherlink.com 1.10,2013-07-27 17:40:00,
2013-07-27 13:55:00,87.6,88.0,29.88,East,84,3.0,-999.0,100,-99.99,,,0.00,weatherlink.com 1.10,2013-07-27 17:55:00,
2013-07-27 14:10:00,87.6,88.0,29.88,ESE,104,0.0,-999.0,100,-99.99,,,0.00,weatherlink.com 1.10,2013-07-27 18:10:00,
2013-07-27 15:11:00,87.6,88.0,29.87,ENE,70,0.0,-999.0,100,-99.99,,,0.00,weatherlink.com 1.10,2013-07-27 19:11:00,
2013-07-27 15:41:00,87.6,88.0,29.85,East,101,5.0,-999.0,100,-99.99,,,0.00,weatherlink.com 1.10,2013-07-27 19:41:00,
2013-07-27 15:56:00,87.2,87.0,29.84,East,100,4.0,-999.0,100,-99.99,,,0.00,weatherlink.com 1.10,2013-07-27 19:56:00,
2013-07-27 16:11:00,85.7,86.0,29.85,ESE,103,4.0,-999.0,100,-99.99,,,0.00,weatherlink.com 1.10,2013-07-27 20:11:00,
2013-07-27 16:26:00,87.0,87.0,29.85,ENE,74,0.0,-999.0,100,-99.99,,,0.00,weatherlink.com 1.10,2013-07-27 20:26:00,
2013-07-27 16:56:00,86.3,86.0,29.83,SE,131,4.0,-999.0,100,-99.99,,,0.00,weatherlink.com 1.10,2013-07-27 20:56:00,
2013-07-27 17:11:00,84.1,84.0,29.83,ESE,115,0.0,-999.0,100,-99.99,,,0.00,weatherlink.com 1.10,2013-07-27 21:11:00,
2013-07-27 17:26:00,83.2,83.0,29.83,East,85,0.0,-999.0,100,-99.99,,,0.00,weatherlink.com 1.10,2013-07-27 21:26:00,
2013-07-27 17:41:00,82.6,83.0,29.84,SW,225,0.0,-999.0,100,-99.99,,,0.00,weatherlink.com 1.10,2013-07-27 21:41:00,
2013-07-27 17:56:00,82.4,82.0,29.85,SSE,148,0.0,-999.0,100,-99.99,,,0.00,weatherlink.com 1.10,2013-07-27 21:56:00,
2013-07-27 18:41:00,82.8,83.0,29.86,South,174,1.0,-999.0,100,-99.99,,,0.00,weatherlink.com 1.10,2013-07-27 22:41:00,
2013-07-27 18:56:00,81.8,82.0,29.86,SSE,162,0.0,-999.0,100,-99.99,,,0.00,weatherlink.com 1.10,2013-07-27 22:56:00,
2013-07-27 19:11:00,81.6,82.0,29.85,SE,126,0.0,-999.0,100,-99.99,,,0.00,weatherlink.com 1.10,2013-07-27 23:11:00,
2013-07-27 19:26:00,81.6,82.0,29.85,SE,135,1.0,-999.0,100,-99.99,,,0.00,weatherlink.com 1.10,2013-07-27 23:26:00,
2013-07-27 19:41:00,81.4,81.0,29.85,SSE,155,3.0,-999.0,100,-99.99,,,0.00,weatherlink.com 1.10,2013-07-27 23:41:00,
2013-07-27 19:56:00,81.6,82.0,29.86,SE,140,4.0,-999.0,100,-99.99,,,0.00,weatherlink.com 1.10,2013-07-27 23:56:00,
2013-07-27 20:11:00,82.0,82.0,29.86,SSW,192,2.0,-999.0,100,-99.99,,,0.00,weatherlink.com 1.10,2013-07-28 00:11:00,
2013-07-27 20:41:00,81.4,81.0,29.86,SW,224,2.0,-999.0,100,-99.99,,,0.00,weatherlink.com 1.10,2013-07-28 00:41:00,
2013-07-27 21:26:00,81.4,81.0,29.86,SSW,205,4.0,-999.0,100,-99.99,,,0.00,weatherlink.com 1.10,2013-07-28 01:26:00,
2013-07-27 22:11:00,81.2,81.0,29.87,WSW,240,3.0,-999.0,100,-99.99,,,0.00,weatherlink.com 1.10,2013-07-28 02:11:00,
2013-07-27 22:26:00,81.1,81.0,29.88,SW,231,4.0,-999.0,100,-99.99,,,0.00,weatherlink.com 1.10,2013-07-28 02:26:00,
2013-07-27 23:56:00,80.1,80.0,29.89,WSW,252,3.0,-999.0,100,-99.99,,,0.00,weatherlink.com 1.10,2013-07-28 03:56:00,